Time;durP1;ratioP1;P1;durP2;ratioP2;P2;SDS_P1;SDS_P2;PMS_P1;PMS_P2;Temp;Humidity;BMP_temperature;BMP_pressure;BME280_temperature;BME280_humidity;BME280_pressure;Samples;Min_cycle;Max_cycle;Signal;HPM_P1;HPM_P2
2022/01/23 00:00:44;;;;;;;43.05;18.23;;;;;;;;;;5207719;28;20134;-86
2022/01/23 00:03:19;;;;;;;43.53;17.15;;;;;;;;;;5214178;28;20098;-88
2022/01/23 00:05:52;;;;;;;45.90;17.75;;;;;;;;;;5212606;28;20048;-86
2022/01/23 00:08:25;;;;;;;41.90;17.10;;;;;;;;;;5217438;28;20431;-86
2022/01/23 00:10:59;;;;;;;46.70;18.52;;;;;;;;;;5229533;28;20052;-85
2022/01/23 00:17:11;;;;;;;41.03;17.55;;;;;;;;;;5230137;28;20519;-86
2022/01/23 00:19:17;;;;;;;41.05;18.00;;;;;;;;;;5226920;28;20091;-85
2022/01/23 00:21:52;;;;;;;47.23;18.97;;;;;;;;;;5227950;28;20056;-88
2022/01/23 00:30:21;;;;;;;49.40;18.48;;;;;;;;;;5229870;28;20097;-85
2022/01/23 00:33:03;;;;;;;50.97;17.75;;;2.60;99.90;;;;;;5240836;28;20052;-86
2022/01/23 00:35:37;;;;;;;45.95;19.17;;;2.60;99.90;;;;;;5242758;28;20071;-86
2022/01/23 00:38:11;;;;;;;49.92;19.08;;;2.70;99.90;;;;;;5216990;28;20067;-86
2022/01/23 00:40:45;;;;;;;;;;;2.70;99.90;;;;;;5229437;28;20417;-85
2022/01/23 00:43:30;;;;;;;44.45;17.08;;;;;;;;;;5238679;28;19932;-88
2022/01/23 00:51:33;;;;;;;46.42;18.23;;;2.60;99.90;;;;;;5225804;28;20159;-86
2022/01/23 00:54:09;;;;;;;46.22;18.67;;;2.70;99.90;;;;;;5234425;28;20048;-85
2022/01/23 00:56:42;;;;;;;45.20;18.88;;;;;;;;;;5210595;28;20055;-84
2022/01/23 00:59:15;;;;;;;46.57;19.27;;;;;;;;;;5234186;28;20491;-85
2022/01/23 01:01:47;;;;;;;46.10;17.53;;;;;;;;;;5221450;28;20048;-88
2022/01/23 01:04:20;;;;;;;45.08;17.20;;;;;;;;;;5235099;28;20300;-84
2022/01/23 01:06:53;;;;;;;43.27;18.17;;;;;;;;;;5229042;28;20059;-86
2022/01/23 01:09:29;;;;;;;45.67;18.88;;;;;;;;;;5238912;28;20052;-85
2022/01/23 01:12:09;;;;;;;48.05;20.08;;;;;;;;;;5238471;28;20504;-85
2022/01/23 01:31:41;;;;;;;47.70;18.17;;;;;;;;;;5238785;28;20052;-86
2022/01/23 01:34:24;;;;;;;49.92;19.58;;;;;;;;;;5246425;28;20048;-85
2022/01/23 01:36:57;;;;;;;45.78;18.63;;;;;;;;;;5240147;28;20259;-84
2022/01/23 01:39:30;;;;;;;44.15;19.48;;;;;;;;;;5242133;28;20048;-86
2022/01/23 01:42:04;;;;;;;50.65;20.30;;;;;;;;;;5210959;28;20044;-85
2022/01/23 01:44:39;;;;;;;47.50;19.23;;;;;;;;;;5234887;28;20458;-85
2022/01/23 01:47:27;;;;;;;41.08;17.52;;;;;;;;;;5237667;28;20043;-85
2022/01/23 01:50:11;;;;;;;39.30;16.50;;;;;;;;;;5249786;28;20542;-85
2022/01/23 01:52:44;;;;;;;43.38;17.38;;;;;;;;;;5248833;28;20044;-85
2022/01/23 01:55:24;;;;;;;41.90;18.40;;;2.70;99.90;;;;;;5234159;28;20056;-85
2022/01/23 01:58:04;;;;;;;40.50;16.65;;;;;;;;;;5240283;28;20766;-87
2022/01/23 02:00:54;;;;;;;41.35;17.00;;;;;;;;;;5241966;28;20051;-84
2022/01/23 02:09:10;;;;;;;43.78;17.13;;;;;;;;;;5246000;28;20059;-86
2022/01/23 02:22:58;;;;;;;45.60;18.33;;;;;;;;;;5235058;28;20044;-84
2022/01/23 02:57:04;;;;;;;;;;;2.60;99.90;;;;;;5219554;28;20055;-85
2022/01/23 02:59:38;;;;;;;39.15;15.57;;;;;;;;;;5249659;27;19920;-86
2022/01/23 03:02:40;;;;;;;40.60;16.20;;;;;;;;;;5191215;28;21183;-85
2022/01/23 03:10:47;;;;;;;37.50;15.80;;;;;;;;;;5236041;28;20221;-86
2022/01/23 03:13:42;;;;;;;43.22;17.23;;;;;;;;;;5243995;28;20696;-85
2022/01/23 03:32:55;;;;;;;36.57;16.00;;;;;;;;;;5212079;28;20416;-88
2022/01/23 03:35:28;;;;;;;42.10;18.17;;;;;;;;;;5229407;28;20055;-86
2022/01/23 03:38:01;;;;;;;39.83;16.67;;;;;;;;;;5233378;28;20044;-85
2022/01/23 03:40:34;;;;;;;42.35;15.75;;;;;;;;;;5233660;28;20702;-87
2022/01/23 03:43:12;;;;;;;40.70;16.90;;;;;;;;;;5237959;28;20040;-86
2022/01/23 03:51:20;;;;;;;37.80;17.52;;;;;;;;;;5205932;28;20084;-86
2022/01/23 03:53:55;;;;;;;37.70;16.35;;;;;;;;;;5218296;28;20041;-87
2022/01/23 03:56:30;;;;;;;40.25;16.15;;;;;;;;;;5246476;28;20644;-86
2022/01/23 03:59:04;;;;;;;36.70;15.05;;;;;;;;;;5227047;28;20048;-86
2022/01/23 04:01:36;;;;;;;42.00;17.00;;;;;;;;;;5221612;28;20045;-85
2022/01/23 04:04:25;;;;;;;40.97;16.75;;;;;;;;;;5246863;28;20056;-86
2022/01/23 04:06:59;;;;;;;36.88;15.38;;;;;;;;;;5235890;28;20044;-87
2022/01/23 04:09:32;;;;;;;35.45;15.05;;;;;;;;;;5242433;28;20040;-85
2022/01/23 04:12:07;;;;;;;33.80;15.00;;;;;;;;;;5213636;28;20048;-87
2022/01/23 04:14:48;;;;;;;33.35;15.40;;;;;;;;;;5216425;28;20053;-86
2022/01/23 04:20:36;;;;;;;36.65;14.50;;;;;;;;;;5227091;28;20052;-86
2022/01/23 04:32:10;;;;;;;37.03;15.20;;;;;;;;;;5225563;28;20095;-85
2022/01/23 04:46:31;;;;;;;38.33;16.17;;;;;;;;;;5235016;28;20047;-85
2022/01/23 05:00:12;;;;;;;35.22;15.25;;;;;;;;;;5225184;28;20052;-86
2022/01/23 05:06:01;;;;;;;33.90;15.30;;;;;;;;;;5235763;28;20040;-86
2022/01/23 05:08:55;;;;;;;36.13;14.77;;;;;;;;;;5226789;28;20052;-84
2022/01/23 05:11:49;;;;;;;32.58;14.52;;;;;;;;;;5223815;28;20060;-85
2022/01/23 05:14:33;;;;;;;36.92;15.40;;;2.50;99.90;;;;;;5225138;28;20048;-86
2022/01/23 05:17:08;;;;;;;30.88;13.75;;;2.60;99.90;;;;;;5233759;28;20045;-86
2022/01/23 05:19:42;;;;;;;40.03;15.98;;;2.60;99.90;;;;;;5227267;28;20739;-87
2022/01/23 05:25:14;;;;;;;34.40;14.73;;;;;;;;;;5235763;28;20048;-86
2022/01/23 05:27:51;;;;;;;35.45;14.02;;;;;;;;;;5225306;28;20055;-87
2022/01/23 05:30:24;;;;;;;31.35;14.13;;;;;;;;;;5228929;28;20064;-86
2022/01/23 05:32:59;;;;;;;34.03;14.43;;;;;;;;;;5224960;28;20044;-85
2022/01/23 05:35:33;;;;;;;34.03;14.00;;;;;;;;;;5209837;28;20424;-86
2022/01/23 05:38:07;;;;;;;35.80;13.88;;;;;;;;;;5245151;28;20051;-84
2022/01/23 05:40:42;;;;;;;36.33;14.45;;;;;;;;;;5223692;28;20523;-85
2022/01/23 05:43:18;;;;;;;36.97;14.57;;;;;;;;;;5231567;28;20043;-85
2022/01/23 05:45:52;;;;;;;33.50;13.50;;;;;;;;;;5230202;28;20059;-86
2022/01/23 05:48:40;;;;;;;46.47;14.98;;;;;;;;;;5225711;28;20051;-88
2022/01/23 05:51:35;;;;;;;33.35;15.90;;;;;;;;;;5232163;28;20047;-87
2022/01/23 05:54:08;;;;;;;32.15;13.95;;;;;;;;;;5241525;28;21382;-87
2022/01/23 05:57:14;;;;;;;33.83;15.30;;;;;;;;;;5229457;28;20110;-87
2022/01/23 06:00:11;;;;;;;36.40;14.63;;;;;;;;;;5231741;28;20943;-88
2022/01/23 06:02:56;;;;;;;33.88;15.32;;;;;;;;;;5246777;28;20044;-88
2022/01/23 06:05:39;;;;;;;36.33;14.25;;;;;;;;;;5222409;28;20047;-86
2022/01/23 06:08:21;;;;;;;33.22;13.88;;;;;;;;;;5225518;28;20059;-86
2022/01/23 06:10:56;;;;;;;35.00;14.85;;;;;;;;;;5223149;28;20059;-85
2022/01/23 06:13:42;;;;;;;30.98;13.63;;;;;;;;;;5223294;28;20056;-86
2022/01/23 06:16:18;;;;;;;28.88;13.13;;;;;;;;;;5223521;28;20052;-87
2022/01/23 06:19:10;;;;;;;38.83;15.70;;;;;;;;;;5222098;28;20075;-85
2022/01/23 06:22:04;;;;;;;39.42;15.60;;;;;;;;;;5203348;28;20056;-85
2022/01/23 06:24:53;;;;;;;35.08;15.27;;;;;;;;;;5214200;28;21052;-88
2022/01/23 06:27:43;;;;;;;32.75;13.90;;;;;;;;;;5229032;28;20036;-87
2022/01/23 06:30:17;;;;;;;32.53;14.50;;;2.70;99.90;;;;;;5227391;28;20728;-86
2022/01/23 06:32:50;;;;;;;;;;;2.50;99.90;;;;;;5242705;28;20407;-86
2022/01/23 06:35:22;;;;;;;34.38;14.05;;;;;;;;;;5249299;28;19931;-86
2022/01/23 06:37:56;;;;;;;36.63;15.45;;;;;;;;;;5241159;28;20067;-87
2022/01/23 06:40:29;;;;;;;37.80;15.88;;;;;;;;;;5220004;28;20451;-86
2022/01/23 06:43:22;;;;;;;32.97;14.40;;;;;;;;;;5226383;28;20064;-85
2022/01/23 06:46:06;;;;;;;31.38;14.30;;;;;;;;;;5226814;28;20044;-87
2022/01/23 06:48:39;;;;;;;34.38;15.88;;;;;;;;;;5203870;28;20047;-87
2022/01/23 06:51:12;;;;;;;38.33;16.20;;;;;;;;;;5216286;28;20048;-88
2022/01/23 06:53:46;;;;;;;37.00;14.30;;;;;;;;;;5205291;28;20052;-87
2022/01/23 06:56:19;;;;;;;40.72;18.20;;;;;;;;;;5218895;28;20317;-88
2022/01/23 06:58:54;;;;;;;40.78;17.05;;;;;;;;;;5218001;28;20049;-86
2022/01/23 07:01:30;;;;;;;41.15;16.55;;;;;;;;;;5233311;28;20760;-87
2022/01/23 07:04:22;;;;;;;38.88;17.30;;;;;;;;;;5214687;28;20089;-88
2022/01/23 07:07:14;;;;;;;39.40;16.65;;;;;;;;;;5204121;28;20542;-87
2022/01/23 07:10:14;;;;;;;36.25;15.57;;;;;;;;;;5208236;28;20052;-88
2022/01/23 07:13:08;;;;;;;36.58;15.70;;;;;;;;;;5218816;28;20078;-87
2022/01/23 07:16:02;;;;;;;38.75;16.73;;;;;;;;;;5223819;28;20498;-88
2022/01/23 07:18:46;;;;;;;40.25;16.33;;;;;;;;;;5235117;28;20044;-86
2022/01/23 07:21:21;;;;;;;43.92;16.63;;;;;;;;;;5232170;28;21233;-87
2022/01/23 07:23:54;;;;;;;39.92;16.30;;;;;;;;;;5233533;28;20056;-87
2022/01/23 07:26:29;;;;;;;42.65;17.15;;;;;;;;;;5215966;28;20064;-86
2022/01/23 07:29:07;;;;;;;37.30;17.08;;;;;;;;;;5214613;28;20048;-87
2022/01/23 07:31:55;;;;;;;38.55;17.58;;;;;;;;;;5206889;28;20055;-86
2022/01/23 07:34:28;;;;;;;42.92;18.30;;;;;;;;;;5192498;28;20052;-87
2022/01/23 07:37:03;;;;;;;39.78;16.83;;;;;;;;;;5201041;28;21370;-86
2022/01/23 07:39:46;;;;;;;45.67;18.48;;;;;;;;;;5227547;28;20044;-87
2022/01/23 07:42:27;;;;;;;41.58;17.17;;;;;;;;;;5230331;28;20047;-88
2022/01/23 07:45:04;;;;;;;42.65;18.73;;;;;;;;;;5228554;28;20055;-87
2022/01/23 07:48:14;;;;;;;42.33;17.67;;;;;;;;;;5202533;28;20052;-87
2022/01/23 07:51:03;;;;;;;47.17;18.70;;;;;;;;;;5220688;28;20041;-88
2022/01/23 07:53:56;;;;;;;39.57;17.00;;;;;;;;;;5196872;28;20083;-87
2022/01/23 07:56:53;;;;;;;44.72;18.38;;;;;;;;;;5215359;28;20293;-87
2022/01/23 08:00:15;;;;;;;48.78;18.73;;;;;;;;;;5241740;28;20051;-87
2022/01/23 08:02:55;;;;;;;42.63;17.45;;;;;;;;;;5212068;28;20047;-87
2022/01/23 08:05:31;;;;;;;39.10;16.92;;;;;;;;;;5234225;28;20043;-88
2022/01/23 08:08:50;;;;;;;41.03;18.73;;;;;;;;;;5215462;28;20041;-89
2022/01/23 08:11:34;;;;;;;46.67;19.80;;;;;;;;;;5202207;28;20658;-87
2022/01/23 08:14:17;;;;;;;49.92;19.45;;;;;;;;;;5174276;28;20087;-88
2022/01/23 08:16:53;;;;;;;41.85;18.05;;;;;;;;;;5194295;28;20048;-87
2022/01/23 08:19:34;;;;;;;43.35;17.25;;;;;;;;;;5198389;28;20068;-86
2022/01/23 08:22:19;;;;;;;40.72;18.20;;;;;;;;;;5211189;28;20044;-87
2022/01/23 08:24:57;;;;;;;38.35;17.95;;;2.80;99.90;;;;;;5230292;28;20704;-88
2022/01/23 08:27:34;;;;;;;41.10;18.25;;;;;;;;;;5214884;28;20345;-87
2022/01/23 08:30:13;;;;;;;42.40;18.02;;;;;;;;;;5211492;28;20263;-87
2022/01/23 08:32:53;;;;;;;42.97;18.80;;;;;;;;;;5245080;28;20049;-87
2022/01/23 08:35:28;;;;;;;47.67;19.50;;;;;;;;;;5199065;28;20063;-88
2022/01/23 08:38:06;;;;;;;41.25;18.08;;;;;;;;;;5193728;28;20056;-87
2022/01/23 08:43:16;;;;;;;39.20;17.45;;;;;;;;;;5209770;28;20052;-86
2022/01/23 08:46:05;;;;;;;38.67;17.23;;;;;;;;;;5216107;28;20048;-86
2022/01/23 08:48:44;;;;;;;40.42;18.90;;;;;;;;;;5213694;28;20048;-87
2022/01/23 08:51:32;;;;;;;35.03;17.02;;;;;;;;;;5205627;28;20056;-88
2022/01/23 08:54:12;;;;;;;42.83;17.58;;;;;;;;;;5210138;28;20060;-86
2022/01/23 08:56:50;;;;;;;46.20;20.83;;;;;;;;;;5231784;28;20058;-86
2022/01/23 08:59:29;;;;;;;45.75;19.55;;;;;;;;;;5211897;28;20047;-85
2022/01/23 09:02:06;;;;;;;51.78;22.23;;;;;;;;;;5214253;28;20044;-87
2022/01/23 09:04:47;;;;;;;43.95;20.63;;;;;;;;;;5214020;28;20307;-86
2022/01/23 09:07:38;;;;;;;42.30;19.17;;;;;;;;;;5216445;28;20048;-86
2022/01/23 09:10:39;;;;;;;47.08;19.38;;;;;;;;;;5220268;28;20052;-88
2022/01/23 09:13:33;;;;;;;47.10;20.65;;;;;;;;;;5238490;28;20051;-88
2022/01/23 09:16:14;;;;;;;42.55;19.45;;;;;;;;;;5205401;28;20727;-88
2022/01/23 09:18:57;;;;;;;35.72;16.63;;;;;;;;;;5224799;28;20051;-88
2022/01/23 09:21:57;;;;;;;44.58;19.25;;;;;;;;;;5216105;28;20051;-86
2022/01/23 09:25:03;;;;;;;51.38;22.85;;;;;;;;;;5228637;28;20052;-87
2022/01/23 09:27:52;;;;;;;55.33;26.45;;;;;;;;;;5222692;28;20055;-87
2022/01/23 09:30:51;;;;;;;56.70;24.88;;;;;;;;;;5237139;22;20044;-81
2022/01/23 09:33:24;;;;;;;51.58;25.35;;;;;;;;;;5237974;28;20044;-80
2022/01/23 09:35:57;;;;;;;58.10;26.00;;;;;;;;;;5239799;28;20047;-82
2022/01/23 09:38:33;;;;;;;60.28;26.15;;;;;;;;;;5234770;28;20032;-82
2022/01/23 09:41:26;;;;;;;53.97;23.17;;;3.20;99.90;;;;;;5263465;22;20408;-88
2022/01/23 09:44:15;;;;;;;56.72;22.95;;;;;;;;;;5183101;28;20059;-88
2022/01/23 09:47:37;;;;;;;65.03;24.70;;;;;;;;;;5205405;28;20064;-86
2022/01/23 09:50:13;;;;;;;51.10;22.05;;;3.30;99.90;;;;;;5260465;23;20052;-31
2022/01/23 09:52:46;;;;;;;45.88;21.52;;;;;;;;;;5198951;28;20055;-31
2022/01/23 09:55:19;;;;;;;48.08;21.92;;;;;;;;;;5235181;28;20044;-31
2022/01/23 09:57:52;;;;;;;50.03;22.10;;;;;;;;;;5235973;28;20110;-30
2022/01/23 10:00:27;;;;;;;50.00;24.27;;;3.30;99.90;;;;;;5219328;28;20205;-31
2022/01/23 10:03:00;;;;;;;61.63;26.30;;;;;;;;;;5225620;28;20036;-30
2022/01/23 10:05:34;;;;;;;52.63;23.52;;;;;;;;;;5214143;28;20043;-30
2022/01/23 10:08:07;;;;;;;51.40;24.50;;;;;;;;;;5219833;28;20036;-31
2022/01/23 10:10:40;;;;;;;47.35;21.33;;;;;;;;;;5220792;28;20059;-30
2022/01/23 10:13:14;;;;;;;47.13;22.02;;;;;;;;;;5198492;28;20052;-30
2022/01/23 10:15:46;;;;;;;47.00;22.20;;;;;;;;;;5207049;28;20516;-30
2022/01/23 10:18:20;;;;;;;46.73;22.37;;;;;;;;;;5192976;28;20065;-32
2022/01/23 10:20:53;;;;;;;57.20;24.63;;;;;;;;;;5205702;28;20056;-30
2022/01/23 10:23:26;;;;;;;43.80;19.63;;;;;;;;;;5188062;28;20052;-30
2022/01/23 10:26:00;;;;;;;45.60;21.13;;;;;;;;;;5167519;28;20072;-33
2022/01/23 10:28:35;;;;;;;44.85;20.50;;;;;;;;;;5189176;28;20045;-31
2022/01/23 10:31:08;;;;;;;43.60;21.30;;;;;;;;;;5185284;28;20048;-36
2022/01/23 10:33:40;;;;;;;48.05;23.95;;;;;;;;;;5185638;28;20055;-31
2022/01/23 10:36:17;;;;;;;47.85;21.83;;;3.40;99.90;;;;;;5174065;28;20052;-32
2022/01/23 10:38:57;;;;;;;47.55;21.88;;;3.40;99.90;;;;;;5180892;28;20040;-31
2022/01/23 10:49:58;;;;;;;50.35;24.85;;;;;;;;;;5202628;28;20048;-32
2022/01/23 10:52:40;;;;;;;49.63;24.67;;;3.60;99.90;;;;;;5194022;28;20044;-31
2022/01/23 10:55:13;;;;;;;47.17;22.48;;;;;;;;;;5181740;28;20059;-31
2022/01/23 10:57:48;;;;;;;56.40;25.70;;;3.60;99.90;;;;;;5181577;28;20059;-31
2022/01/23 11:00:36;;;;;;;51.10;23.85;;;3.60;99.90;;;;;;5176432;28;20071;-31
2022/01/23 11:03:23;;;;;;;49.83;24.75;;;3.50;99.90;;;;;;5194006;28;20040;-31
2022/01/23 11:05:56;;;;;;;51.90;25.10;;;;;;;;;;5167421;28;20047;-31
2022/01/23 11:08:31;;;;;;;52.65;25.42;;;3.70;99.90;;;;;;5187799;28;25765;-31
2022/01/23 11:11:06;;;;;;;51.28;25.10;;;3.60;99.90;;;;;;5177980;28;20988;-31
2022/01/23 11:19:41;;;;;;;50.67;23.80;;;;;;;;;;5181570;28;20345;-31
2022/01/23 11:22:20;;;;;;;53.22;25.02;;;3.80;99.90;;;;;;5175473;28;20052;-31
2022/01/23 11:25:00;;;;;;;53.22;25.13;;;3.70;99.90;;;;;;5182120;28;20055;-30
2022/01/23 11:27:38;;;;;;;54.22;26.02;;;3.80;99.90;;;;;;5175307;28;20179;-30
2022/01/23 11:30:13;;;;;;;49.83;23.13;;;3.80;99.90;;;;;;5158550;28;20257;-30
2022/01/23 11:32:46;;;;;;;47.42;23.80;;;;;;;;;;5183850;28;20281;-30
2022/01/23 11:35:19;;;;;;;49.80;24.02;;;;;;;;;;5171953;28;20049;-29
2022/01/23 11:37:52;;;;;;;;;;;3.70;99.90;;;;;;5168808;28;20247;-30
2022/01/23 11:54:43;;;;;;;50.72;24.38;;;;;;;;;;5195805;28;20239;-31
2022/01/23 11:57:34;;;;;;;47.35;23.27;;;4.00;99.90;;;;;;5217500;28;20812;-39
2022/01/23 12:00:25;;;;;;;47.72;23.58;;;4.00;99.90;;;;;;5194614;28;20057;-41
2022/01/23 12:03:14;;;;;;;;;;;3.90;99.90;;;;;;5200254;28;20408;-41
2022/01/23 12:05:51;;;;;;;52.92;23.35;;;3.90;99.90;;;;;;5186581;28;20155;-37
2022/01/23 12:08:29;;;;;;;47.55;22.63;;;;;;;;;;5208163;28;20041;-42
2022/01/23 12:17:19;;;;;;;48.72;22.95;;;4.00;99.90;;;;;;5168211;28;20579;-42
2022/01/23 12:20:00;;;;;;;47.15;21.83;;;3.90;99.90;;;;;;5185523;28;20036;-39
2022/01/23 12:22:42;;;;;;;46.20;23.67;;;4.00;99.90;;;;;;5210178;28;20048;-40
2022/01/23 12:25:22;;;;;;;53.47;25.50;;;3.90;99.90;;;;;;5202692;28;20078;-42
2022/01/23 12:28:25;;;;;;;47.28;21.15;;;3.90;99.90;;;;;;5214324;28;20059;-41
2022/01/23 12:31:00;;;;;;;45.60;22.00;;;3.90;99.90;;;;;;5202242;28;20055;-39
2022/01/23 12:34:01;;;;;;;51.45;23.70;;;3.90;99.90;;;;;;5202485;28;20140;-40
2022/01/23 12:36:37;;;;;;;53.80;25.58;;;3.90;99.90;;;;;;5182442;28;20048;-41
2022/01/23 12:39:13;;;;;;;56.17;24.85;;;3.90;99.90;;;;;;5203472;28;20075;-39
2022/01/23 12:41:53;;;;;;;52.08;23.92;;;3.80;99.90;;;;;;5219678;28;20056;-41
2022/01/23 12:44:27;;;;;;;53.70;24.35;;;;;;;;;;5211973;28;20496;-39
2022/01/23 12:47:02;;;;;;;51.33;22.95;;;3.80;99.90;;;;;;5219242;28;20052;-41
2022/01/23 12:49:38;;;;;;;53.75;23.73;;;3.80;99.90;;;;;;5226362;28;20079;-41
2022/01/23 12:52:11;;;;;;;50.38;23.75;;;;;;;;;;5199823;28;20068;-42
2022/01/23 12:54:58;;;;;;;47.20;22.53;;;3.70;99.90;;;;;;5190212;28;20667;-39
2022/01/23 12:57:37;;;;;;;51.38;25.10;;;3.70;99.90;;;;;;5205977;28;20598;-39
2022/01/23 13:00:23;;;;;;;54.88;24.77;;;3.70;99.90;;;;;;5215110;28;20534;-41
2022/01/23 13:02:57;;;;;;;53.42;23.70;;;;;;;;;;5218892;28;20071;-40
2022/01/23 13:05:30;;;;;;;56.10;25.98;;;;;;;;;;5223417;28;20036;-42
2022/01/23 13:08:21;;;;;;;54.20;24.85;;;3.60;99.90;;;;;;5227346;28;20036;-41
2022/01/23 13:13:57;;;;;;;52.42;25.15;;;3.60;99.90;;;;;;5171751;28;20068;-42
2022/01/23 13:16:40;;;;;;;55.45;26.45;;;;;;;;;;5219413;28;20044;-41
2022/01/23 13:30:23;;;;;;;58.38;26.02;;;;;;;;;;5221055;28;20048;-42
2022/01/23 13:33:04;;;;;;;57.08;25.23;;;3.80;99.90;;;;;;5218582;28;20311;-41
2022/01/23 13:35:41;;;;;;;57.88;25.90;;;4.40;99.90;;;;;;5226253;28;20049;-42
2022/01/23 13:38:17;;;;;;;54.40;24.33;;;3.80;99.90;;;;;;5227687;28;20063;-42
2022/01/23 13:40:59;;;;;;;57.50;25.50;;;3.70;99.90;;;;;;5223767;28;20044;-41
2022/01/23 13:52:22;;;;;;;54.25;23.35;;;;;;;;;;5227413;28;20048;-41
2022/01/23 13:58:29;;;;;;;45.53;19.65;;;;;;;;;;5226501;28;20056;-41
2022/01/23 14:01:16;;;;;;;43.60;20.75;;;3.70;99.90;;;;;;5197727;28;20102;-42
2022/01/23 14:03:49;;;;;;;39.13;19.25;;;;;;;;;;5224109;28;20044;-41
2022/01/23 14:06:22;;;;;;;44.47;19.98;;;;;;;;;;5208936;28;20083;-41
2022/01/23 14:09:05;;;;;;;40.75;18.45;;;3.70;99.90;;;;;;5225321;28;20630;-42
2022/01/23 14:11:38;;;;;;;34.13;17.15;;;3.70;99.90;;;;;;5227280;28;20048;-41
2022/01/23 14:14:17;;;;;;;33.45;16.55;;;3.70;99.90;;;;;;5214270;28;20064;-40
2022/01/23 14:16:52;;;;;;;38.88;17.20;;;3.60;99.90;;;;;;5222800;28;20048;-41
2022/01/23 14:19:29;;;;;;;35.30;17.33;;;3.60;99.90;;;;;;5228195;28;20036;-42
2022/01/23 14:22:03;;;;;;;37.10;18.63;;;;;;;;;;5223633;28;20037;-40
2022/01/23 14:24:36;;;;;;;36.67;17.75;;;3.60;99.90;;;;;;5222750;28;20477;-41
2022/01/23 14:27:13;;;;;;;35.80;17.08;;;3.60;99.90;;;;;;5226333;28;26627;-42
2022/01/23 14:29:48;;;;;;;36.70;17.02;;;3.70;99.90;;;;;;5207966;28;20538;-39
2022/01/23 14:32:34;;;;;;;37.00;15.68;;;3.60;99.90;;;;;;5224594;28;20051;-42
2022/01/23 14:35:28;;;;;;;36.72;17.88;;;3.70;99.90;;;;;;5222887;28;20083;-42
2022/01/23 14:38:14;;;;;;;38.37;18.53;;;3.50;99.90;;;;;;5228302;28;20310;-41
2022/01/23 14:40:56;;;;;;;40.08;18.20;;;3.50;99.90;;;;;;5226042;28;20051;-41
2022/01/23 14:43:38;;;;;;;43.70;19.40;;;3.50;99.90;;;;;;5203160;28;20370;-41
2022/01/23 14:46:12;;;;;;;46.15;19.88;;;3.50;99.90;;;;;;5226813;28;20052;-41
2022/01/23 14:48:48;;;;;;;44.83;20.10;;;3.50;99.90;;;;;;5227370;28;20041;-42
2022/01/23 14:51:24;;;;;;;45.92;19.58;;;;;;;;;;5228386;28;20068;-41
2022/01/23 14:53:57;;;;;;;45.80;20.05;;;;;;;;;;5204289;28;20048;-42
2022/01/23 14:56:32;;;;;;;45.60;20.57;;;;;;;;;;5226493;28;20056;-41
2022/01/23 14:59:08;;;;;;;44.63;20.92;;;3.50;99.90;;;;;;5210732;28;20048;-42
2022/01/23 15:01:44;;;;;;;45.75;20.10;;;3.40;99.90;;;;;;5219982;28;21315;-42
2022/01/23 15:04:20;;;;;;;48.80;21.00;;;;;;;;;;5228232;28;20472;-42
2022/01/23 15:06:53;;;;;;;48.50;21.33;;;;;;;;;;5225251;28;20424;-40
2022/01/23 15:09:26;;;;;;;49.75;20.60;;;;;;;;;;5228132;28;20416;-41
2022/01/23 15:11:59;;;;;;;36.28;16.90;;;;;;;;;;5198250;28;20049;-41
2022/01/23 15:14:32;;;;;;;46.53;20.85;;;;;;;;;;5221573;28;20048;-41
2022/01/23 15:17:05;;;;;;;;;;;3.40;99.90;;;;;;5219934;28;20040;-39
2022/01/23 15:19:37;;;;;;;47.15;20.63;;;;;;;;;;5227355;28;20407;-41
2022/01/23 15:22:10;;;;;;;44.60;19.70;;;;;;;;;;5189722;28;20064;-42
2022/01/23 15:24:45;;;;;;;42.42;19.17;;;;;;;;;;5198151;28;20047;-41
2022/01/23 15:27:17;;;;;;;54.10;21.85;;;;;;;;;;5199555;28;20671;-40
2022/01/23 15:29:50;;;;;;;43.30;20.63;;;;;;;;;;5198087;28;20048;-41
2022/01/23 15:32:23;;;;;;;44.17;19.00;;;;;;;;;;5196138;28;20146;-41
2022/01/23 15:34:56;;;;;;;43.08;19.13;;;;;;;;;;5215820;28;20054;-41
2022/01/23 15:37:29;;;;;;;43.20;19.27;;;;;;;;;;5220628;28;20055;-42
2022/01/23 15:40:02;;;;;;;49.20;20.67;;;;;;;;;;5207655;28;20044;-41
2022/01/23 15:42:34;;;;;;;43.28;20.08;;;;;;;;;;5214103;28;21131;-41
2022/01/23 15:45:07;;;;;;;50.17;22.30;;;;;;;;;;5176415;28;20163;-38
2022/01/23 15:47:40;;;;;;;42.03;19.58;;;;;;;;;;5204083;28;20870;-40
2022/01/23 15:50:15;;;;;;;47.93;21.60;;;3.30;99.90;;;;;;5189798;28;20041;-41
2022/01/23 15:52:48;;;;;;;47.45;21.00;;;3.40;99.90;;;;;;5205190;28;20044;-41
2022/01/23 15:55:24;;;;;;;;;;;3.40;99.90;;;;;;5215650;28;20056;-41
2022/01/23 15:57:57;;;;;;;39.47;17.27;;;;;;;;;;4510372;28;10000210;-39
2022/01/23 16:00:32;;;;;;;52.78;23.38;;;;;;;;;;5215192;28;20313;-40
2022/01/23 16:03:05;;;;;;;50.90;21.23;;;;;;;;;;5212809;28;20036;-41
2022/01/23 16:05:39;;;;;;;47.88;21.45;;;;;;;;;;5209546;28;20045;-41
2022/01/23 16:08:13;;;;;;;47.10;21.23;;;;;;;;;;5216360;28;20045;-42
2022/01/23 16:10:46;;;;;;;52.88;21.55;;;;;;;;;;5207351;28;20049;-41
2022/01/23 16:13:19;;;;;;;53.00;22.10;;;;;;;;;;5210737;28;20527;-41
2022/01/23 16:15:52;;;;;;;46.40;21.65;;;;;;;;;;5200321;28;20519;-40
2022/01/23 16:18:26;;;;;;;48.55;22.05;;;3.30;99.90;;;;;;5211666;28;20581;-40
2022/01/23 16:20:59;;;;;;;;;;;3.30;99.90;;;;;;5211375;28;20432;-41
2022/01/23 16:23:31;;;;;;;49.45;21.38;;;;;;;;;;5212583;28;19925;-40
2022/01/23 16:26:17;;;;;;;53.72;22.63;;;3.10;99.90;;;;;;5211816;28;21437;-40
2022/01/23 16:28:50;;;;;;;49.67;22.05;;;;;;;;;;5209639;28;20044;-41
2022/01/23 16:31:22;;;;;;;51.60;22.20;;;4.10;99.90;;;;;;5208616;28;20059;-39
2022/01/23 16:33:55;;;;;;;50.50;22.35;;;;;;;;;;5215258;28;20052;-41
2022/01/23 16:36:28;;;;;;;54.13;22.83;;;;;;;;;;5208699;28;20534;-41
2022/01/23 16:39:02;;;;;;;52.90;22.25;;;3.50;99.90;;;;;;5190748;28;20469;-41
2022/01/23 16:41:35;;;;;;;47.10;21.35;;;;;;;;;;5207926;28;20090;-37
2022/01/23 16:44:07;;;;;;;49.45;21.70;;;0.50;99.90;;;;;;5207516;28;20044;-40
2022/01/23 16:46:41;;;;;;;45.45;21.58;;;4.50;99.90;;;;;;5205191;28;20041;-41
2022/01/23 16:49:20;;;;;;;50.88;19.80;;;5.00;99.90;;;;;;5212201;28;20071;-41
2022/01/23 16:51:53;;;;;;;42.45;19.75;;;;;;;;;;5178312;28;20041;-39
2022/01/23 16:54:26;;;;;;;48.67;21.77;;;3.40;99.90;;;;;;5199602;28;20055;-41
2022/01/23 16:57:18;;;;;;;48.03;20.67;;;;;;;;;;5202775;28;20306;-41
2022/01/23 16:59:52;;;;;;;52.07;22.50;;;;;;;;;;5203432;28;20059;-39
2022/01/23 17:02:24;;;;;;;47.55;21.75;;;3.20;99.90;;;;;;5202593;28;20059;-41
2022/01/23 17:04:57;;;;;;;45.30;20.70;;;;;;;;;;5207326;28;25131;-41
2022/01/23 17:07:30;;;;;;;44.53;19.97;;;2.80;99.90;;;;;;5215060;28;20071;-42
2022/01/23 17:10:05;;;;;;;47.83;21.63;;;5.40;99.90;;;;;;5210709;28;20614;-40
2022/01/23 17:12:38;;;;;;;40.75;18.85;;;3.30;99.90;;;;;;5205691;28;20411;-40
2022/01/23 17:15:11;;;;;;;44.85;20.75;;;;;;;;;;5201260;28;20480;-41
2022/01/23 17:17:43;;;;;;;44.03;19.85;;;5.70;99.90;;;;;;5197369;28;20044;-39
2022/01/23 17:20:24;;;;;;;47.58;21.85;;;;;;;;;;5210862;28;20055;-41
2022/01/23 17:22:56;;;;;;;49.37;22.20;;;3.20;99.90;;;;;;5219327;28;20420;-41
2022/01/23 17:25:29;;;;;;;44.13;20.67;;;;;;;;;;5202275;28;20052;-41
2022/01/23 17:28:02;;;;;;;49.50;22.20;;;5.30;99.90;;;;;;5213911;28;20283;-41
2022/01/23 17:30:34;;;;;;;43.50;21.60;;;4.30;99.90;;;;;;5218573;28;20052;-41
2022/01/23 17:33:06;;;;;;;51.70;22.50;;;3.40;99.90;;;;;;5216103;28;20052;-40
2022/01/23 17:35:39;;;;;;;47.83;21.92;;;3.90;99.90;;;;;;5216038;28;20407;-41
2022/01/23 17:38:13;;;;;;;45.67;21.70;;;4.50;99.90;;;;;;5216399;28;20372;-41
2022/01/23 17:40:46;;;;;;;50.80;24.08;;;;;;;;;;5218530;28;20045;-41
2022/01/23 17:43:19;;;;;;;53.88;22.38;;;;;;;;;;5214265;28;20890;-41
2022/01/23 17:45:53;;;;;;;51.80;23.03;;;2.80;99.90;;;;;;5217096;28;20447;-41
2022/01/23 17:48:33;;;;;;;53.92;24.00;;;;;;;;;;5213224;28;20461;-42
2022/01/23 17:51:07;;;;;;;54.17;23.42;;;;;;;;;;5219563;28;20036;-38
2022/01/23 17:53:40;;;;;;;50.20;21.88;;;;;;;;;;5198939;28;20512;-41
2022/01/23 17:56:13;;;;;;;53.22;23.40;;;;;;;;;;5220733;28;20044;-41
2022/01/23 17:58:46;;;;;;;51.20;24.00;;;;;;;;;;5215144;28;20052;-41
2022/01/23 18:01:18;;;;;;;54.83;25.52;;;;;;;;;;5182573;28;20109;-38
2022/01/23 18:03:51;;;;;;;49.73;23.47;;;;;;;;;;5211580;28;20048;-41
2022/01/23 18:06:28;;;;;;;52.58;25.45;;;;;;;;;;5222521;28;20305;-41
2022/01/23 18:09:01;;;;;;;57.30;24.70;;;;;;;;;;5215847;28;20040;-41
2022/01/23 18:11:33;;;;;;;55.80;26.90;;;;;;;;;;5221370;28;20378;-40
2022/01/23 18:14:08;;;;;;;57.40;25.60;;;;;;;;;;5205135;28;20951;-41
2022/01/23 18:16:41;;;;;;;52.85;24.67;;;;;;;;;;5214494;28;20563;-38
2022/01/23 18:19:14;;;;;;;51.50;24.08;;;;;;;;;;5196316;28;20459;-41
2022/01/23 18:21:56;;;;;;;50.00;22.58;;;;;;;;;;5200899;28;21225;-41
2022/01/23 18:24:29;;;;;;;51.17;23.63;;;;;;;;;;5207813;28;20048;-41